Retz, Austria
Current Conditions -  °F | °C
As of 2:00 AM on Monday 26 Jan 2015 (Local Time) from LKNA Reporting Station
Broken Clouds Broken Clouds  
Wind Chill: 24°   Ceiling: 4000
Heat Index: 30°   Visibility: 6mi
Dew Point: 27°   Wind: 6mph
Humidity: 86%   Direction: 330°NNW
Pressure: 30.21"   Gusts: NA
Location:  48.76°N, 15.95°E
Report Text: LKNA 260000Z 33005KT 9999 BKN040 M01/M03 Q1023
Loading
Personal Weather Stations






























Interactive Weather Map New forecast layout! Learn more

10-Day Weather Forecast

Advertisements
Track Severe Weather on mobile